Time;durP1;ratioP1;P1;durP2;ratioP2;P2;SDS_P1;SDS_P2;PMS_P1;PMS_P2;Temp;Humidity;BMP_temperature;BMP_pressure;BME280_temperature;BME280_humidity;BME280_pressure;Samples;Min_cycle;Max_cycle;Signal;HPM_P1;HPM_P2
2022/10/07 00:03:14;;;;;;;11.27;4.45;;;;;;;;;;10346225;28;20066;-73
2022/10/07 00:08:15;;;;;;;8.97;3.20;;;;;;;;;;10346034;28;20033;-72
2022/10/07 00:13:15;;;;;;;13.75;3.78;;;;;;;;;;10344596;28;20088;-74
2022/10/07 00:18:15;;;;;;;9.53;3.70;;;;;;;;;;10344277;28;20471;-76
2022/10/07 00:23:15;;;;;;;10.20;4.70;;;;;;;;;;10342532;28;20058;-74
2022/10/07 00:28:16;;;;;;;9.60;3.75;;;;;;;;;;10345091;28;20092;-77
2022/10/07 00:33:16;;;;;;;8.80;4.38;;;;;;;;;;10341307;28;20022;-75
2022/10/07 00:38:16;;;;;;;9.85;4.80;;;;;;;;;;10346295;28;20014;-73
2022/10/07 00:43:22;;;;;;;9.30;5.00;;;;;;;;;;10343937;28;20117;-73
2022/10/07 00:48:25;;;;;;;9.07;4.47;;;;;;;;;;10343617;28;20137;-73
2022/10/07 00:53:27;;;;;;;10.50;4.53;;;;;;;;;;10342313;28;20088;-77
2022/10/07 00:58:33;;;;;;;10.27;5.00;;;;;;;;;;10345776;28;20037;-73
2022/10/07 01:03:34;;;;;;;13.35;5.65;;;;;;;;;;10342775;28;20026;-74
2022/10/07 01:08:35;;;;;;;9.95;5.20;;;;;;;;;;10343672;28;20091;-73
2022/10/07 01:13:41;;;;;;;12.68;5.97;;;;;;;;;;10342920;28;20018;-73
2022/10/07 01:18:46;;;;;;;12.75;4.95;;;;;;;;;;10343784;28;20574;-74
2022/10/07 01:23:52;;;;;;;8.63;4.82;;;;;;;;;;10342994;28;20052;-72
2022/10/07 01:28:56;;;;;;;14.32;4.50;;;;;;;;;;10343079;28;20045;-72
2022/10/07 01:33:57;;;;;;;14.88;4.85;;;;;;;;;;10359314;28;20045;-72
2022/10/07 01:39:01;;;;;;;16.53;4.90;;;;;;;;;;10341368;28;20026;-72
2022/10/07 01:44:02;;;;;;;9.23;4.90;;;;;;;;;;10340770;28;20026;-77
2022/10/07 01:49:04;;;;;;;12.63;6.13;;;;;;;;;;10343755;28;20022;-75
2022/10/07 01:54:18;;;;;;;12.90;4.60;;;;;;;;;;10341370;28;20018;-75
2022/10/07 01:59:18;;;;;;;8.77;4.68;;;;;;;;;;10342686;28;20476;-73
2022/10/07 02:04:45;;;;;;;9.52;4.80;;;;;;;;;;10341808;28;20032;-74
2022/10/07 02:09:57;;;;;;;9.13;4.25;;;;;;;;;;10340841;28;20393;-79
2022/10/07 02:15:10;;;;;;;7.20;4.38;;;;;;;;;;10343463;28;20548;-73
2022/10/07 02:20:11;;;;;;;11.60;4.30;;;;;;;;;;10351818;28;20018;-72
2022/10/07 02:25:12;;;;;;;11.20;4.75;;;;;;;;;;10350709;28;20130;-74
2022/10/07 02:30:15;;;;;;;6.60;3.92;;;;;;;;;;10348736;28;20099;-75
2022/10/07 02:35:35;;;;;;;11.05;4.28;;;;;;;;;;10351393;28;20065;-72
2022/10/07 02:40:38;;;;;;;9.43;3.33;;;;;;;;;;10348520;28;20042;-73
2022/10/07 02:45:44;;;;;;;6.25;3.92;;;;;;;;;;10349645;28;20153;-75
2022/10/07 02:50:47;;;;;;;9.40;3.75;;;;;;;;;;10347943;28;20022;-74
2022/10/07 02:55:49;;;;;;;7.35;4.30;;;;;;;;;;10347127;28;20040;-76
2022/10/07 03:00:51;;;;;;;14.20;4.72;;;;;;;;;;10348907;28;20025;-74
2022/10/07 03:05:52;;;;;;;12.43;4.95;;;;;;;;;;10349289;28;20157;-73
2022/10/07 03:10:53;;;;;;;7.63;4.13;;;;;;;;;;10348919;28;20030;-73
2022/10/07 03:15:53;;;;;;;8.13;5.43;;;;;;;;;;10346694;28;20026;-74
2022/10/07 03:20:58;;;;;;;8.40;4.83;;;;;;;;;;10348045;28;20029;-76
2022/10/07 03:25:59;;;;;;;5.28;4.78;;;;;;;;;;10349230;28;20315;-75
2022/10/07 03:31:04;;;;;;;8.80;5.32;;;;;;;;;;10346619;28;20045;-72
2022/10/07 03:36:07;;;;;;;10.15;5.15;;;;;;;;;;10348782;28;20165;-72
2022/10/07 03:41:07;;;;;;;8.20;4.68;;;;;;;;;;10350199;28;20037;-72
2022/10/07 03:46:07;;;;;;;11.70;4.93;;;;;;;;;;10347377;28;20092;-74
2022/10/07 03:51:08;;;;;;;10.90;5.13;;;;;;;;;;10348250;28;20033;-74
2022/10/07 03:56:08;;;;;;;14.38;5.72;;;;;;;;;;10345403;28;20018;-76
2022/10/07 04:01:09;;;;;;;12.02;5.25;;;;;;;;;;10344630;28;20029;-76
2022/10/07 04:06:09;;;;;;;12.43;6.55;;;;;;;;;;10347429;28;20028;-74
2022/10/07 04:11:10;;;;;;;15.02;7.20;;;;;;;;;;10346461;28;20506;-77
2022/10/07 04:16:11;;;;;;;11.27;5.88;;;;;;;;;;10336719;28;20019;-73
2022/10/07 04:21:12;;;;;;;12.85;7.10;;;;;;;;;;10344408;28;20091;-76
2022/10/07 04:26:12;;;;;;;15.23;7.57;;;;;;;;;;10346403;28;20439;-78
2022/10/07 04:31:12;;;;;;;11.63;6.80;;;;;;;;;;10343655;28;20089;-73
2022/10/07 04:36:13;;;;;;;16.60;6.45;;;;;;;;;;10343276;28;20026;-77
2022/10/07 04:41:13;;;;;;;26.73;7.10;;;;;;;;;;10345117;28;20034;-74
2022/10/07 04:46:13;;;;;;;20.58;9.25;;;;;;;;;;10345063;28;20692;-75
2022/10/07 04:51:14;;;;;;;30.07;8.70;;;;;;;;;;10342626;28;20038;-74
2022/10/07 04:56:15;;;;;;;23.75;10.48;;;;;;;;;;10346400;28;20529;-74
2022/10/07 05:01:15;;;;;;;30.23;7.95;;;;;;;;;;10340225;28;20048;-74
2022/10/07 05:06:15;;;;;;;17.77;7.40;;;;;;;;;;10343221;28;20105;-75
2022/10/07 05:11:16;;;;;;;18.88;7.28;;;;;;;;;;10340823;28;20042;-74
2022/10/07 05:16:16;;;;;;;14.50;7.43;;;;;;;;;;10342753;28;20022;-75
2022/10/07 05:21:16;;;;;;;18.38;8.05;;;;;;;;;;10331475;28;20041;-74
2022/10/07 05:26:17;;;;;;;19.42;8.32;;;;;;;;;;10342417;28;20087;-74
2022/10/07 05:31:17;;;;;;;19.05;7.88;;;;;;;;;;10341471;28;20034;-74
2022/10/07 05:36:18;;;;;;;16.48;8.50;;;;;;;;;;10347184;28;20183;-73
2022/10/07 05:41:20;;;;;;;16.42;7.28;;;;;;;;;;10348586;28;20025;-78
2022/10/07 05:46:21;;;;;;;20.55;8.27;;;;;;;;;;10336379;28;20408;-74
2022/10/07 05:51:24;;;;;;;9.25;6.18;;;;;;;;;;10336245;28;20034;-72
2022/10/07 05:56:24;;;;;;;13.98;7.00;;;;;;;;;;10340402;28;20026;-74
2022/10/07 06:01:26;;;;;;;13.15;6.97;;;;;;;;;;10339028;28;20014;-76
2022/10/07 06:06:28;;;;;;;20.75;7.35;;;;;;;;;;10339452;28;20488;-72
2022/10/07 06:16:48;;;;;;;17.33;6.55;;;;;;;;;;10340528;28;20030;-73
2022/10/07 06:21:49;;;;;;;17.50;6.20;;;;;;;;;;10335386;28;20496;-75
2022/10/07 06:26:50;;;;;;;15.07;6.85;;;;;;;;;;10342262;28;20054;-77
2022/10/07 06:31:50;;;;;;;21.90;6.03;;;;;;;;;;10335958;28;21351;-74
2022/10/07 06:36:51;;;;;;;19.02;6.85;;;;;;;;;;10339045;28;20276;-73
2022/10/07 06:41:53;;;;;;;24.98;7.00;;;;;;;;;;10335802;28;20023;-78
2022/10/07 06:46:53;;;;;;;13.55;5.88;;;;;;;;;;10340028;28;20216;-70
2022/10/07 06:51:53;;;;;;;11.95;5.75;;;;;;;;;;10339072;28;20408;-75
2022/10/07 06:56:54;;;;;;;15.90;5.57;;;;;;;;;;10337923;28;20443;-78
2022/10/07 07:01:54;;;;;;;18.40;8.40;;;;;;;;;;10341782;28;20630;-78
2022/10/07 07:06:54;;;;;;;19.25;8.25;;;;;;;;;;10345688;28;20599;-73
2022/10/07 07:11:54;;;;;;;25.88;9.50;;;;;;;;;;10347446;28;20547;-76
2022/10/07 07:16:55;;;;;;;15.57;6.57;;;;;;;;;;10347890;28;20431;-73
2022/10/07 07:21:55;;;;;;;18.05;6.70;;;;;;;;;;10345077;28;20026;-76
2022/10/07 07:26:55;;;;;;;18.65;6.95;;;;;;;;;;10344843;28;20076;-74
2022/10/07 07:31:57;;;;;;;20.92;7.85;;;;;;;;;;10361487;28;20113;-75
2022/10/07 07:36:57;;;;;;;18.45;6.00;;;;;;;;;;10362334;28;20126;-74
2022/10/07 07:41:57;;;;;;;18.55;6.95;;;;;;;;;;10360068;28;20030;-75
2022/10/07 07:46:58;;;;;;;20.30;6.90;;;;;;;;;;10350629;28;20018;-74
2022/10/07 07:51:58;;;;;;;18.53;6.93;;;;;;;;;;10355892;28;20033;-77
2022/10/07 07:56:59;;;;;;;16.33;7.38;;;;;;;;;;10360487;28;20872;-72
2022/10/07 08:01:59;;;;;;;23.92;7.80;;;;;;;;;;10352328;28;20411;-73
2022/10/07 08:07:00;;;;;;;23.73;7.63;;;;;;;;;;10356650;28;20110;-78
2022/10/07 08:12:00;;;;;;;13.00;5.32;;;;;;;;;;10349327;28;20045;-76
2022/10/07 08:17:01;;;;;;;9.32;4.43;;;;;;;;;;10355216;28;20025;-75
2022/10/07 08:22:01;;;;;;;9.88;3.53;;;;;;;;;;10355827;28;20022;-73
2022/10/07 08:27:01;;;;;;;16.40;2.77;;;;;;;;;;10356603;28;20163;-74
2022/10/07 08:32:01;;;;;;;6.18;2.08;;;;;;;;;;10358012;28;20503;-78
2022/10/07 08:37:02;;;;;;;3.25;1.92;;;;;;;;;;10352945;28;20400;-76
2022/10/07 08:42:15;;;;;;;7.35;2.00;;;;;;;;;;10354199;28;20018;-78
2022/10/07 08:47:20;;;;;;;7.28;3.03;;;;;;;;;;10351351;28;20037;-76
2022/10/07 08:52:20;;;;;;;9.65;2.83;;;;;;;;;;10354096;28;20091;-72
2022/10/07 08:57:33;;;;;;;10.05;2.47;;;;;;;;;;10353578;28;20025;-76
2022/10/07 09:02:33;;;;;;;4.40;2.15;;;;;;;;;;10352285;28;20021;-74
2022/10/07 09:07:35;;;;;;;13.70;3.47;;;;;;;;;;10349747;28;20030;-73
2022/10/07 09:12:37;;;;;;;13.60;4.22;;;;;;;;;;10356117;28;20140;-74
2022/10/07 09:17:40;;;;;;;3.53;2.20;;;;;;;;;;10360909;23;20054;-75
2022/10/07 09:22:41;;;;;;;7.05;2.80;;;;;;;;;;10274191;28;20089;-73
2022/10/07 09:27:41;;;;;;;5.05;1.70;;;;;;;;;;10275687;28;20035;-73
2022/10/07 09:32:44;;;;;;;4.32;1.90;;;;;;;;;;10274560;28;20027;-74
2022/10/07 09:38:08;;;;;;;4.95;2.05;;;;;;;;;;10275271;28;20085;-80
2022/10/07 09:43:16;;;;;;;7.38;1.85;;;;;;;;;;10289455;28;20023;-84
2022/10/07 09:48:19;;;;;;;11.55;2.13;;;;;;;;;;10277409;28;20500;-77
2022/10/07 09:53:21;;;;;;;6.65;2.30;;;;;;;;;;10275034;28;20051;-80
2022/10/07 09:58:28;;;;;;;7.57;2.75;;;;;;;;;;10324074;23;20082;-79
2022/10/07 10:03:29;;;;;;;4.40;1.65;;;;;;;;;;10310456;28;20014;-81
2022/10/07 10:08:32;;;;;;;6.45;1.80;;;;;;;;;;10304128;28;20031;-79
2022/10/07 10:13:37;;;;;;;6.10;1.85;;;;;;;;;;10317199;28;20515;-77
2022/10/07 10:18:38;;;;;;;6.50;1.77;;;;;;;;;;10328423;28;20034;-79
2022/10/07 10:23:41;;;;;;;13.43;1.92;;;;;;;;;;10316020;28;20061;-76
2022/10/07 10:28:45;;;;;;;4.20;1.13;;;;;;;;;;10313389;28;20125;-82
2022/10/07 10:34:02;;;;;;;6.95;1.50;;;;;;;;;;10313233;28;20034;-81
2022/10/07 10:39:12;;;;;;;2.05;1.13;;;;;;;;;;10319317;28;20026;-79
2022/10/07 10:44:31;;;;;;;7.22;1.60;;;;;;;;;;10318542;28;20472;-80
2022/10/07 10:49:49;;;;;;;3.78;1.50;;;;;;;;;;10321252;28;20030;-80
2022/10/07 10:54:59;;;;;;;3.13;1.30;;;;;;;;;;10318472;28;20037;-79
2022/10/07 11:00:06;;;;;;;2.65;1.27;;;;;;;;;;10320339;28;20066;-78
2022/10/07 11:05:22;;;;;;;4.78;1.17;;;;;;;;;;10323205;28;20061;-80
2022/10/07 11:10:45;;;;;;;2.60;1.45;;;;;;;;;;10320063;28;20037;-76
2022/10/07 11:16:16;;;;;;;3.40;1.00;;;;;;;;;;10322355;28;20468;-82
2022/10/07 11:21:23;;;;;;;3.75;1.13;;;;;;;;;;10305648;28;20038;-82
2022/10/07 11:26:38;;;;;;;3.90;1.60;;;;;;;;;;10319136;28;20022;-86
2022/10/07 11:31:41;;;;;;;5.95;2.00;;;;;;;;;;10320107;28;20022;-80
2022/10/07 11:37:02;;;;;;;2.88;1.85;;;;;;;;;;10321098;28;20038;-78
2022/10/07 11:42:06;;;;;;;2.70;1.80;;;;;;;;;;10318815;28;20022;-77
2022/10/07 11:47:10;;;;;;;3.70;2.22;;;;;;;;;;10316436;28;20030;-77
2022/10/07 11:52:20;;;;;;;3.67;2.22;;;;;;;;;;10337467;28;20033;-80
2022/10/07 11:57:23;;;;;;;2.70;1.40;;;;;;;;;;10321596;28;20085;-80
2022/10/07 12:02:29;;;;;;;2.67;1.20;;;;;;;;;;10326146;28;20030;-78
2022/10/07 12:07:37;;;;;;;3.83;1.52;;;;;;;;;;10318367;28;20049;-76
2022/10/07 12:12:41;;;;;;;6.05;1.60;;;;;;;;;;10317457;28;20026;-77
2022/10/07 12:17:51;;;;;;;6.53;1.52;;;;;;;;;;10321863;28;20065;-78
2022/10/07 12:23:12;;;;;;;2.97;1.17;;;;;;;;;;10336243;28;20688;-75
2022/10/07 12:28:24;;;;;;;13.02;1.95;;;;;;;;;;10320035;28;20022;-77
2022/10/07 12:33:28;;;;;;;6.22;1.52;;;;;;;;;;10314743;28;20026;-75
2022/10/07 12:38:29;;;;;;;3.25;1.20;;;;;;;;;;10317754;28;20022;-76
2022/10/07 12:43:35;;;;;;;4.15;1.38;;;;;;;;;;10301854;28;20018;-76
2022/10/07 12:48:38;;;;;;;5.18;1.55;;;;;;;;;;10318940;28;20076;-76
2022/10/07 12:53:42;;;;;;;3.97;1.38;;;;;;;;;;10320438;28;20029;-76
2022/10/07 13:04:15;;;;;;;3.03;1.48;;;;;;;;;;10320409;28;20022;-76
2022/10/07 13:09:34;;;;;;;4.50;1.60;;;;;;;;;;10318470;28;20026;-75
2022/10/07 13:14:34;;;;;;;1.80;1.60;;;;;;;;;;10319699;28;20475;-75
2022/10/07 13:19:47;;;;;;;1.98;1.10;;;;;;;;;;10319290;28;20029;-75
2022/10/07 13:24:50;;;;;;;3.88;1.33;;;;;;;;;;10318686;28;20018;-76
2022/10/07 13:29:50;;;;;;;5.95;1.60;;;;;;;;;;10320030;28;20482;-75
2022/10/07 13:34:53;;;;;;;2.80;1.52;;;;;;;;;;10316911;28;20408;-77
2022/10/07 13:39:54;;;;;;;5.55;1.90;;;;;;;;;;10317737;28;20037;-75
2022/10/07 13:45:01;;;;;;;1.90;1.33;;;;;;;;;;10318358;28;20018;-75
2022/10/07 13:50:01;;;;;;;12.10;1.73;;;;;;;;;;10315545;28;20037;-75
2022/10/07 13:55:17;;;;;;;2.35;1.50;;;;;;;;;;10318437;28;20018;-76
2022/10/07 14:00:18;;;;;;;3.00;1.65;;;;;;;;;;10315990;28;20475;-75
2022/10/07 14:05:20;;;;;;;7.63;1.50;;;;;;;;;;10318846;28;20019;-77
2022/10/07 14:10:22;;;;;;;6.40;1.73;;;;;;;;;;10317111;28;20033;-75
2022/10/07 14:15:28;;;;;;;6.97;1.92;;;;;;;;;;10324806;28;20424;-75
2022/10/07 14:20:31;;;;;;;4.50;2.03;;;;;;;;;;10324055;28;20026;-75
2022/10/07 14:25:36;;;;;;;4.97;1.73;;;;;;;;;;10325188;28;20030;-76
2022/10/07 14:36:14;;;;;;;8.80;2.03;;;;;;;;;;10327905;28;20503;-79
2022/10/07 14:41:16;;;;;;;3.35;1.77;;;;;;;;;;10324687;28;20449;-78
2022/10/07 14:46:18;;;;;;;6.22;2.13;;;;;;;;;;10324728;28;20010;-82
2022/10/07 14:51:20;;;;;;;8.15;2.30;;;;;;;;;;10337761;28;20097;-80
2022/10/07 14:56:31;;;;;;;5.40;2.03;;;;;;;;;;10325827;28;20516;-84
2022/10/07 15:01:32;;;;;;;7.10;2.97;;;;;;;;;;10320395;28;20618;-79
2022/10/07 15:06:33;;;;;;;8.75;2.22;;;;;;;;;;10324870;28;20018;-80
2022/10/07 15:11:34;;;;;;;6.50;2.50;;;;;;;;;;10324425;28;20026;-80
2022/10/07 15:16:35;;;;;;;4.47;1.92;;;;;;;;;;10308325;28;20021;-75
2022/10/07 15:21:35;;;;;;;5.28;2.50;;;;;;;;;;10322690;28;20246;-80
2022/10/07 15:26:35;;;;;;;6.70;2.30;;;;;;;;;;10323333;28;20589;-79
2022/10/07 15:31:36;;;;;;;5.10;2.53;;;;;;;;;;10323379;28;20420;-80
2022/10/07 15:36:37;;;;;;;6.80;2.13;;;;;;;;;;10324541;28;20479;-80
2022/10/07 15:41:38;;;;;;;8.40;2.78;;;;;;;;;;10321344;28;20097;-76
2022/10/07 15:46:38;;;;;;;9.30;2.40;;;;;;;;;;10322269;28;20053;-76
2022/10/07 15:51:39;;;;;;;5.32;2.25;;;;;;;;;;10321445;28;20553;-75
2022/10/07 15:56:39;;;;;;;4.63;1.75;;;;;;;;;;10322774;28;20050;-75
2022/10/07 16:01:39;;;;;;;10.23;3.60;;;;;;;;;;10320507;28;20556;-75
2022/10/07 16:06:40;;;;;;;6.60;2.90;;;;;;;;;;10321378;28;20029;-75
2022/10/07 16:11:40;;;;;;;8.43;3.50;;;;;;;;;;10311691;28;20080;-76
2022/10/07 16:16:41;;;;;;;12.10;3.53;;;;;;;;;;10330682;28;20041;-76
2022/10/07 16:21:41;;;;;;;6.65;3.33;;;;;;;;;;10316028;28;20030;-73
2022/10/07 16:26:42;;;;;;;13.07;3.83;;;;;;;;;;10314021;28;20026;-76
2022/10/07 16:31:43;;;;;;;10.30;4.10;;;;;;;;;;10315226;28;20022;-74
2022/10/07 16:36:47;;;;;;;17.35;4.57;;;;;;;;;;10314187;28;20053;-74
2022/10/07 16:41:48;;;;;;;12.07;5.03;;;;;;;;;;10300347;28;20681;-73
2022/10/07 16:46:48;;;;;;;10.57;4.80;;;;;;;;;;10317920;28;20026;-74
2022/10/07 16:51:48;;;;;;;15.23;5.47;;;;;;;;;;10313503;28;20030;-77
2022/10/07 16:56:51;;;;;;;14.95;4.68;;;;;;;;;;10314885;28;20061;-76
2022/10/07 17:01:54;;;;;;;12.50;4.97;;;;;;;;;;10314684;28;20065;-75
2022/10/07 17:06:55;;;;;;;11.05;4.70;;;;;;;;;;10316467;28;20489;-77
2022/10/07 17:11:55;;;;;;;14.27;4.80;;;;;;;;;;10314908;28;20022;-74
2022/10/07 17:17:02;;;;;;;11.25;4.68;;;;;;;;;;10315935;28;20022;-78
2022/10/07 17:22:03;;;;;;;10.60;5.00;;;;;;;;;;10305657;28;20121;-74
2022/10/07 17:27:04;;;;;;;15.88;5.32;;;;;;;;;;10327073;28;20033;-75
2022/10/07 17:32:04;;;;;;;14.70;4.85;;;;;;;;;;10316556;28;20056;-73
2022/10/07 17:37:04;;;;;;;12.68;4.75;;;;;;;;;;10314753;28;20022;-74
2022/10/07 17:42:05;;;;;;;8.43;4.22;;;;;;;;;;10314823;28;20093;-75
2022/10/07 17:47:05;;;;;;;12.53;5.03;;;;;;;;;;10313535;28;20505;-74
2022/10/07 17:52:05;;;;;;;16.63;4.72;;;;;;;;;;10603331;23;20548;-75
2022/10/07 17:57:05;;;;;;;14.30;5.15;;;;;;;;;;10274286;28;20026;-74
2022/10/07 18:02:07;;;;;;;14.48;5.30;;;;;;;;;;10274188;28;20466;-74
2022/10/07 18:07:07;;;;;;;11.82;4.68;;;;;;;;;;10273403;28;20026;-75
2022/10/07 18:17:26;;;;;;;17.17;6.57;;;;;;;;;;10270981;28;20035;-76
2022/10/07 18:22:27;;;;;;;13.20;5.22;;;;;;;;;;10273021;28;20484;-74
2022/10/07 18:27:27;;;;;;;11.05;4.28;;;;;;;;;;10289664;28;20041;-75
2022/10/07 18:32:27;;;;;;;11.60;4.13;;;;;;;;;;10274663;28;20054;-73
2022/10/07 18:37:28;;;;;;;10.75;4.25;;;;;;;;;;10272561;28;20645;-73
2022/10/07 18:42:28;;;;;;;10.07;5.60;;;;;;;;;;10256088;28;20033;-75
2022/10/07 18:47:34;;;;;;;15.95;5.57;;;;;;;;;;10275915;28;20590;-79
2022/10/07 18:52:34;;;;;;;13.18;5.53;;;;;;;;;;10273499;28;20062;-73
2022/10/07 18:57:34;;;;;;;12.10;5.20;;;;;;;;;;10275078;28;20053;-74
2022/10/07 19:02:34;;;;;;;15.20;6.05;;;;;;;;;;10274230;28;20530;-76
2022/10/07 19:07:35;;;;;;;20.10;7.35;;;;;;;;;;10329789;23;20065;-78
2022/10/07 19:17:55;;;;;;;26.73;7.20;;;;;;;;;;10274449;28;20034;-74
2022/10/07 19:22:55;;;;;;;21.45;6.78;;;;;;;;;;10271430;28;20448;-75
2022/10/07 19:27:55;;;;;;;11.25;5.82;;;;;;;;;;10270999;28;20037;-73
2022/10/07 19:32:56;;;;;;;18.08;5.95;;;;;;;;;;10272300;28;20077;-73
2022/10/07 19:37:56;;;;;;;15.55;6.57;;;;;;;;;;10275489;28;20027;-75
2022/10/07 19:42:56;;;;;;;14.13;6.18;;;;;;;;;;10253213;28;20101;-73
2022/10/07 19:47:56;;;;;;;18.25;6.40;;;;;;;;;;10240609;28;20442;-76
2022/10/07 19:52:58;;;;;;;8.82;5.43;;;;;;;;;;10241610;28;20086;-75
2022/10/07 19:58:00;;;;;;;13.30;6.28;;;;;;;;;;10240990;28;20532;-76
2022/10/07 20:03:01;;;;;;;16.58;6.45;;;;;;;;;;10236959;28;20024;-73
2022/10/07 20:08:01;;;;;;;12.40;6.93;;;;;;;;;;10235707;28;20425;-75
2022/10/07 20:13:01;;;;;;;10.65;5.25;;;;;;;;;;10237172;28;20419;-71
2022/10/07 20:18:02;;;;;;;11.82;5.13;;;;;;;;;;10236354;28;20027;-74
2022/10/07 20:23:02;;;;;;;12.73;5.53;;;;;;;;;;10238819;28;20027;-72
2022/10/07 20:28:03;;;;;;;16.23;5.93;;;;;;;;;;10241300;28;20023;-73
2022/10/07 20:33:05;;;;;;;11.30;6.50;;;;;;;;;;10239325;28;20023;-74
2022/10/07 20:38:05;;;;;;;13.30;5.65;;;;;;;;;;10240974;28;20492;-74
2022/10/07 20:43:06;;;;;;;19.05;6.35;;;;;;;;;;10240161;28;20493;-74
2022/10/07 20:48:07;;;;;;;18.40;5.40;;;;;;;;;;10241213;28;20023;-73
2022/10/07 20:53:07;;;;;;;12.00;5.87;;;;;;;;;;10239612;28;21092;-74
2022/10/07 20:58:07;;;;;;;13.00;5.57;;;;;;;;;;10239759;28;20045;-74
2022/10/07 21:03:08;;;;;;;12.52;5.93;;;;;;;;;;10239274;28;20031;-73
2022/10/07 21:08:08;;;;;;;12.32;6.90;;;;;;;;;;10199589;28;1183299;-74
2022/10/07 21:13:08;;;;;;;14.15;5.47;;;;;;;;;;10241313;28;20493;-81
2022/10/07 21:18:08;;;;;;;7.43;4.13;;;;;;;;;;10240389;28;20117;-78
2022/10/07 21:23:09;;;;;;;8.03;5.27;;;;;;;;;;10243145;28;20039;-75
2022/10/07 21:28:09;;;;;;;9.53;3.80;;;;;;;;;;10342148;23;20543;-75
2022/10/07 21:33:12;;;;;;;10.35;4.90;;;;;;;;;;10284771;28;20039;-74
2022/10/07 21:38:12;;;;;;;9.05;6.05;;;;;;;;;;10282975;28;20153;-74
2022/10/07 21:43:14;;;;;;;10.77;5.00;;;;;;;;;;10280505;28;20027;-80
2022/10/07 21:48:14;;;;;;;10.90;4.78;;;;;;;;;;10280346;28;20175;-77
2022/10/07 21:53:14;;;;;;;12.00;5.65;;;;;;;;;;10280230;28;20613;-78
2022/10/07 21:58:15;;;;;;;8.48;5.10;;;;;;;;;;10279851;28;20472;-77
2022/10/07 22:03:15;;;;;;;12.20;4.87;;;;;;;;;;10281042;28;20015;-77
2022/10/07 22:08:34;;;;;;;7.05;4.20;;;;;;;;;;10276599;28;20065;-72
2022/10/07 22:13:36;;;;;;;8.05;4.57;;;;;;;;;;10279196;28;20386;-74
2022/10/07 22:18:36;;;;;;;12.68;5.20;;;;;;;;;;10279082;28;20445;-75
2022/10/07 22:23:37;;;;;;;5.85;3.72;;;;;;;;;;10282177;28;20054;-75
2022/10/07 22:28:37;;;;;;;8.15;5.55;;;;;;;;;;10281024;28;20066;-74
2022/10/07 22:33:38;;;;;;;7.38;3.00;;;;;;;;;;10284901;28;20710;-72
2022/10/07 22:38:42;;;;;;;7.80;3.47;;;;;;;;;;10287035;28;20026;-72
2022/10/07 22:43:43;;;;;;;11.98;3.05;;;;;;;;;;10284049;28;20481;-77
2022/10/07 22:48:47;;;;;;;5.88;3.40;;;;;;;;;;10286697;28;20139;-73
2022/10/07 22:53:52;;;;;;;6.25;3.70;;;;;;;;;;10285835;28;20051;-77
2022/10/07 22:58:55;;;;;;;6.70;2.08;;;;;;;;;;10284625;28;20093;-77
2022/10/07 23:04:01;;;;;;;5.43;2.97;;;;;;;;;;10284906;28;20405;-73
2022/10/07 23:09:02;;;;;;;3.95;2.85;;;;;;;;;;10284548;28;20022;-77
2022/10/07 23:14:04;;;;;;;4.05;2.70;;;;;;;;;;10301270;28;20018;-75
2022/10/07 23:19:04;;;;;;;4.57;3.08;;;;;;;;;;10267549;28;20420;-81
2022/10/07 23:24:05;;;;;;;3.95;2.55;;;;;;;;;;10285512;28;20027;-74
2022/10/07 23:29:06;;;;;;;5.23;3.43;;;;;;;;;;10285020;28;20065;-77
2022/10/07 23:34:09;;;;;;;7.85;2.78;;;;;;;;;;10284851;28;20720;-75
2022/10/07 23:39:12;;;;;;;4.32;2.80;;;;;;;;;;10283951;28;20055;-79
2022/10/07 23:44:13;;;;;;;5.70;2.88;;;;;;;;;;10286107;28;20389;-77
2022/10/07 23:49:13;;;;;;;4.20;3.07;;;;;;;;;;10283626;28;20030;-74
2022/10/07 23:54:13;;;;;;;5.38;3.20;;;;;;;;;;10284173;28;20125;-73
2022/10/07 23:59:13;;;;;;;5.20;3.03;;;;;;;;;;10267199;28;20077;-77
